Latest Weather Observations for Cape Leeuwin

IDW60801

Issued at 3:32 pm WST Friday 19 December 2014 (issued every 30 minutes, with the page automatically refreshed every 10 minutes)

About weather observations | Map of weather stations | Latest weather observations for WA | Other Formats
Station Details ID: 009518 Name: CAPE LEEUWIN Lat: -34.37 Lon: 115.14 Height: 13.0 m
Data from the previous 72 hours. | See also: Recent months at Cape Leeuwin
Date/Time
WST
Temp
°C
App
Temp
°C
Dew
Point
Rel
Hum
%
Delta-T
°C
Wind Press
QNH
hPa
Press
MSL
hPa
Rain
since 9 am
mm
Dir
 
Spd
km/h
Gust
km/h
Spd
kts
Gust
kts
19/03:00pm 22.1 18.1 16.3 69 3.5 SSE 32 39 17 21 1013.9 1013.8 0.0
19/02:30pm 21.6 17.4 15.8 69 3.5 SSE 32 41 17 22 1013.7 1013.6 0.0
19/02:00pm 22.5 18.8 15.9 66 4.0 SSE 30 37 16 20 1014.0 1013.9 0.0
19/01:30pm 22.4 19.5 16.1 67 3.8 SSE 26 33 14 18 1014.3 1014.2 0.0
19/01:00pm 22.5 19.8 15.5 64 4.2 SSE 24 32 13 17 1014.7 1014.6 0.0
19/12:30pm 22.4 18.9 15.4 64 4.2 SSE 28 33 15 18 1015.1 1015.0 0.0
19/12:00pm 23.0 19.4 15.3 62 4.6 SE 28 35 15 19 1015.3 1015.3 0.0
19/11:30am 22.5 17.9 14.5 60 4.7 SE 32 39 17 21 1015.3 1015.3 0.0
19/11:00am 21.5 17.0 13.7 61 4.5 SE 30 35 16 19 1015.3 1015.3 0.0
19/10:30am 21.1 16.7 14.0 64 4.1 SE 30 37 16 20 1015.6 1015.6 0.0
19/10:00am 21.0 16.7 13.3 61 4.4 SE 28 37 15 20 1015.9 1015.9 0.0
19/09:30am 20.5 17.1 12.5 60 4.5 SE 22 30 12 16 1016.5 1016.5 0.0
19/09:00am 20.2 16.5 12.8 62 4.2 ESE 24 32 13 17 1016.6 1016.6 0.0
19/08:30am 19.6 14.5 12.0 61 4.2 ESE 30 35 16 19 1016.5 1016.5 0.0
19/08:00am 19.6 14.0 11.4 59 4.5 ESE 32 39 17 21 1016.7 1016.7 0.0
19/07:30am 18.9 13.4 12.6 67 3.5 ESE 33 41 18 22 1016.7 1016.7 0.0
19/07:00am 18.3 12.1 11.5 64 3.7 ESE 35 41 19 22 1016.8 1016.8 0.0
19/06:30am 17.9 12.1 11.5 66 3.5 ESE 33 39 18 21 1016.9 1016.9 0.0
19/05:30am 17.3 12.1 12.8 75 2.5 ESE 32 37 17 20 1017.1 1017.1 0.0
19/05:00am 17.4 12.4 13.3 77 2.3 ESE 32 39 17 21 1016.9 1016.9 0.0
19/04:30am 17.3 12.2 13.2 77 2.3 ESE 32 37 17 20 1016.6 1016.6 0.0
19/04:00am 17.5 12.7 12.8 74 2.6 ESE 30 37 16 20 1016.6 1016.6 0.0
19/03:30am 17.7 12.5 12.9 73 2.7 ESE 32 37 17 20 1016.6 1016.6 0.0
19/03:00am 17.7 12.5 12.7 72 2.8 SE 32 39 17 21 1016.5 1016.5 0.0
19/02:30am 17.6 12.6 13.5 77 2.3 SE 32 39 17 21 1016.7 1016.7 0.0
19/02:00am 17.6 12.2 12.8 73 2.7 ESE 33 41 18 22 1016.8 1016.8 0.0
19/01:30am 17.8 12.5 13.0 73 2.7 ESE 33 43 18 23 1017.1 1017.1 0.0
19/01:00am 17.8 11.8 12.0 69 3.2 ESE 35 43 19 23 1017.2 1017.2 0.0
19/12:30am 17.8 12.3 12.6 71 2.9 ESE 33 43 18 23 1017.6 1017.6 0.0
 
Date/Time
WST
Temp
°C
App
Temp
°C
Dew
Point
Rel
Hum
%
Delta-T
°C
Wind Press
QNH
hPa
Press
MSL
hPa
Rain
since 9 am
mm
Dir
 
Spd
km/h
Gust
km/h
Spd
kts
Gust
kts
18/11:30pm 17.8 13.0 13.9 78 2.2 SE 32 39 17 21 1018.1 1018.1 0.0
18/11:00pm 17.7 12.5 13.3 75 2.5 SE 33 39 18 21 1018.2 1018.2 0.0
18/10:30pm 17.6 12.4 12.7 73 2.7 ESE 32 41 17 22 1018.4 1018.4 0.0
18/10:00pm 17.8 12.7 13.2 74 2.6 SE 32 39 17 21 1018.6 1018.6 0.0
18/09:30pm 17.7 13.0 13.2 75 2.5 SE 30 37 16 20 1018.8 1018.8 0.0
18/09:00pm 17.6 12.4 12.7 73 2.7 SE 32 39 17 21 1018.6 1018.6 0.0
18/08:30pm 17.8 13.1 13.2 74 2.6 SE 30 35 16 19 1018.4 1018.4 0.0
18/08:00pm 17.8 13.4 12.8 72 2.8 SE 28 35 15 19 1018.2 1018.2 0.0
18/07:30pm 17.9 13.4 12.5 70 3.0 SE 28 35 15 19 1018.2 1018.2 0.0
18/07:00pm 18.1 13.9 12.3 69 3.2 SSE 26 33 14 18 1018.0 1018.0 0.0
18/06:30pm 18.6 14.5 12.7 68 3.3 SSE 26 33 14 18 1017.8 1017.8 0.0
18/06:00pm 19.0 15.1 12.1 64 3.8 SSE 24 32 13 17 1017.7 1017.7 0.0
18/05:30pm 19.5 16.1 12.5 64 3.9 SSE 22 32 12 17 1017.7 1017.7 0.0
18/05:00pm 20.2 17.1 12.3 60 4.4 S 20 28 11 15 1017.4 1017.4 0.0
18/04:30pm 20.7 17.6 12.3 58 4.7 S 20 28 11 15 1017.6 1017.6 0.0
18/04:00pm 20.7 17.6 12.1 58 4.8 S 20 30 11 16 1017.7 1017.7 0.0
18/03:30pm 21.0 17.8 11.8 55 5.1 S 20 28 11 15 1018.0 1018.0 0.0
18/03:00pm 21.2 18.0 11.9 55 5.2 S 20 28 11 15 1018.2 1018.2 0.0
18/02:30pm 21.7 18.6 12.1 54 5.4 S 20 28 11 15 1018.3 1018.3 0.0
18/02:00pm 22.1 19.1 11.9 52 5.7 S 19 26 10 14 1018.4 1018.4 0.0
18/01:30pm 21.4 18.3 11.7 54 5.4 S 19 26 10 14 1018.5 1018.5 0.0
18/01:00pm 21.2 18.2 11.9 55 5.2 S 19 26 10 14 1018.6 1018.6 0.0
18/12:30pm 21.1 18.0 11.5 54 5.3 SSE 19 26 10 14 1018.6 1018.6 0.0
18/12:00pm 21.2 18.2 11.9 55 5.2 SSE 19 26 10 14 1018.7 1018.7 0.0
18/11:30am 20.2 17.0 11.1 56 5.0 SSE 19 22 10 12 1019.0 1019.0 0.0
18/11:00am 20.2 17.4 11.3 56 4.9 SE 17 22 9 12 1019.1 1019.1 0.0
18/10:30am 20.5 18.0 11.2 55 5.1 SE 15 20 8 11 1019.2 1019.2 0.0
18/10:00am 20.3 17.5 11.4 56 4.9 SE 17 22 9 12 1019.3 1019.3 0.0
18/09:30am 20.1 17.7 11.4 57 4.8 SE 15 20 8 11 1019.4 1019.4 0.0
18/09:00am 19.8 17.3 11.0 57 4.8 SE 15 19 8 10 1019.4 1019.4 0.0
18/08:30am 19.2 16.3 11.1 59 4.4 SE 17 22 9 12 1019.3 1019.3 0.0
18/08:00am 18.8 15.6 11.1 61 4.2 ESE 19 22 10 12 1019.1 1019.1 0.0
18/07:30am 18.6 15.3 11.0 61 4.1 ESE 19 22 10 12 1018.8 1018.8 0.0
18/07:00am 18.3 15.0 10.9 62 4.0 SE 19 24 10 13 1018.4 1018.4 0.0
18/06:30am 17.5 14.6 11.0 65 3.5 SE 17 24 9 13 1018.3 1018.3 0.0
18/06:00am 16.8 13.7 10.4 66 3.4 SE 17 20 9 11 1017.8 1017.8 0.0
18/05:30am 16.2 13.2 10.5 69 3.0 SE 17 22 9 12 1017.5 1017.5 0.0
18/05:00am 16.0 13.0 10.5 70 2.9 SE 17 20 9 11 1017.5 1017.5 0.0
18/04:30am 16.2 13.0 10.1 67 3.2 SSE 17 20 9 11 1017.1 1017.1 0.0
18/04:00am 16.3 12.9 10.4 68 3.1 SE 19 24 10 13 1016.9 1016.9 0.0
18/03:30am 16.1 12.2 9.6 65 3.4 SSE 20 26 11 14 1016.8 1016.8 0.0
18/03:00am 16.1 12.8 9.6 65 3.4 SE 17 22 9 12 1016.7 1016.7 0.0
18/02:30am 16.0 12.7 9.7 66 3.3 SSE 17 20 9 11 1016.7 1016.7 0.0
18/02:00am 16.3 12.6 9.6 64 3.5 SSE 19 26 10 14 1016.8 1016.8 0.0
18/01:30am 16.5 12.9 9.8 64 3.5 SSE 19 24 10 13 1016.8 1016.8 0.0
18/01:00am 16.6 14.1 9.7 63 3.6 S 13 17 7 9 1017.2 1017.2 0.0
18/12:30am 16.2 13.4 9.9 66 3.3 SSE 15 19 8 10 1017.2 1017.2 0.0
18/12:00am 16.4 13.0 9.2 62 3.7 SSE 17 24 9 13 1017.6 1017.6 0.0
 
Date/Time
WST
Temp
°C
App
Temp
°C
Dew
Point
Rel
Hum
%
Delta-T
°C
Wind Press
QNH
hPa
Press
MSL
hPa
Rain
since 9 am
mm
Dir
 
Spd
km/h
Gust
km/h
Spd
kts
Gust
kts
17/11:30pm 16.5 12.8 9.6 63 3.6 SSE 19 24 10 13 1017.6 1017.6 0.0
17/11:00pm 16.5 13.5 10.5 67 3.2 SSE 17 24 9 13 1017.6 1017.6 0.0
17/10:30pm 16.6 13.2 10.6 67 3.2 SSE 19 24 10 13 1017.5 1017.5 0.0
17/10:00pm 17.1 13.5 10.7 66 3.4 SSE 20 26 11 14 1017.5 1017.5 0.0
17/09:30pm 16.9 13.9 10.5 66 3.4 SSE 17 22 9 12 1017.3 1017.3 0.0
17/09:00pm 17.1 13.7 10.5 65 3.5 SSE 19 24 10 13 1017.1 1017.1 0.0
17/08:30pm 16.9 13.2 9.6 62 3.8 SSE 19 24 10 13 1016.9 1016.9 0.0
17/08:00pm 17.1 13.3 9.9 62 3.8 S 20 28 11 15 1016.7 1016.7 0.0
17/07:30pm 17.0 13.9 10.4 65 3.5 S 17 22 9 12 1016.4 1016.4 0.0
17/07:00pm 17.5 13.7 9.0 57 4.4 SSE 19 26 10 14 1016.4 1016.4 0.0
17/06:30pm 17.9 13.9 8.1 52 5.0 S 19 26 10 14 1016.2 1016.2 0.0
17/06:00pm 18.1 14.9 9.8 58 4.4 S 17 26 9 14 1015.7 1015.7 0.0
17/05:30pm 18.9 14.9 9.2 53 5.1 S 20 28 11 15 1015.3 1015.3 0.0
17/05:00pm 19.5 15.8 9.5 52 5.3 S 19 24 10 13 1015.1 1015.0 0.0
17/04:30pm 20.0 16.4 9.7 51 5.5 S 19 26 10 14 1015.1 1015.0 0.0
17/04:00pm 20.1 16.1 9.1 49 5.8 S 20 26 11 14 1015.2 1015.2 0.0
17/03:30pm 20.8 16.8 10.3 51 5.7 SSW 22 28 12 15 1015.2 1015.2 0.0
17/03:00pm 20.2 15.9 9.5 50 5.7 SSW 22 30 12 16 1015.2 1015.2 0.0
17/02:30pm 21.2 16.7 10.1 49 6.0 SSW 24 30 13 16 1015.1 1015.0 0.0
17/02:00pm 20.4 16.3 10.0 51 5.6 SSW 22 28 12 15 1015.1 1015.0 0.0
17/01:30pm 20.9 17.3 9.9 49 5.9 SSW 19 24 10 13 1015.2 1015.2 0.0
17/01:00pm 20.6 16.3 9.5 49 5.9 SW 22 28 12 15 1015.2 1015.2 0.0
17/12:30pm 20.6 16.9 9.5 49 5.9 SSW 19 26 10 14 1015.2 1015.2 0.0
17/12:00pm 20.4 16.8 10.0 51 5.6 SW 19 26 10 14 1015.3 1015.3 0.0
17/11:30am 20.4 17.0 9.0 48 6.0 SSW 17 24 9 13 1015.2 1015.2 0.0
17/11:00am 19.5 16.1 9.0 50 5.5 SSW 17 22 9 12 1015.3 1015.3 0.0
17/10:30am 17.9 14.9 9.1 56 4.6 SSW 15 20 8 11 1015.1 1015.0 0.0
17/10:00am 18.0 15.1 9.6 58 4.4 S 15 20 8 11 1015.0 1014.9 0.0
17/09:30am 17.1 14.7 10.1 63 3.7 WSW 13 17 7 9 1014.7 1014.6 0.0
17/09:00am 17.1 14.2 8.3 56 4.5 SSW 13 17 7 9 1014.6 1014.5 0.0
17/08:30am 16.9 14.7 7.8 55 4.6 SSW 9 11 5 6 1014.7 1014.6 0.0
17/08:00am 17.0 14.0 7.7 54 4.7 SSW 13 19 7 10 1014.6 1014.5 0.0
17/07:30am 16.7 16.9 16.7 100 0.0 SSW 11 17 6 9 1014.5 1014.4 0.0
17/07:00am 16.5 15.5 16.5 100 0.0 SSW 17 26 9 14 1014.2 1014.1 0.0
17/06:30am 16.3 14.2 16.3 100 0.0 SSW 22 30 12 16 1013.9 1013.8 0.0
17/06:00am 15.9 14.1 15.9 100 0.0 SSW 20 30 11 16 1013.5 1013.4 0.0
17/05:30am 16.0 13.7 15.8 99 0.1 SSW 22 28 12 15 1013.1 1013.0 0.0
17/05:00am 16.0 13.2 14.4 90 0.9 SW 22 28 12 15 1012.9 1012.8 0.0
17/04:30am 15.9 10.3 7.0 55 4.4 SW 26 35 14 19 1012.8 1012.7 0.0
17/04:00am 15.9 10.7 7.2 56 4.3 SSW 24 32 13 17 1012.3 1012.2 0.0
17/03:30am 16.0 11.1 6.9 54 4.5 SW 22 32 12 17 1012.2 1012.1 0.0
17/03:00am 16.2 9.8 7.1 55 4.5 SW 30 37 16 20 1012.3 1012.2 0.0
17/02:30am 16.3 10.7 7.0 54 4.6 SW 26 32 14 17 1012.4 1012.3 0.0
17/02:00am 16.3 11.0 7.0 54 4.6 SSW 24 28 13 15 1012.5 1012.4 0.0
17/01:30am 16.4 11.1 6.9 53 4.7 SW 24 32 13 17 1012.4 1012.3 0.0
17/01:00am 16.2 12.0 7.4 56 4.4 SW 19 26 10 14 1012.5 1012.4 0.0
17/12:30am 16.5 10.9 7.3 54 4.6 SW 26 35 14 19 1012.5 1012.4 0.0
17/12:00am 16.5 12.4 7.8 56 4.4 SW 19 32 10 17 1012.4 1012.3 0.0
 
Date/Time
WST
Temp
°C
App
Temp
°C
Dew
Point
Rel
Hum
%
Delta-T
°C
Wind Press
QNH
hPa
Press
MSL
hPa
Rain
since 9 am
mm
Dir
 
Spd
km/h
Gust
km/h
Spd
kts
Gust
kts
16/11:30pm 15.7 12.1 6.7 55 4.4 SW 15 20 8 11 1012.6 1012.5 0.0
16/11:00pm 16.0 11.3 6.1 52 4.8 SW 20 28 11 15 1012.9 1012.8 0.0
16/10:30pm 16.4 11.8 6.6 52 4.8 WSW 20 24 11 13 1013.2 1013.1 0.0
16/10:00pm 16.2 11.5 6.1 51 4.9 SW 20 30 11 16 1013.4 1013.3 0.0
16/09:30pm 16.6 12.2 7.6 55 4.5 SW 20 26 11 14 1013.6 1013.5 0.0
16/09:00pm 16.7 12.4 7.0 52 4.8 SW 19 30 10 16 1013.5 1013.4 0.0
16/08:30pm 16.7 13.1 6.8 52 4.9 WSW 15 24 8 13 1013.3 1013.2 0.0
16/08:00pm 16.7 11.9 7.3 54 4.7 WSW 22 28 12 15 1013.2 1013.1 0.0
16/07:30pm 16.7 13.0 8.0 56 4.4 SW 17 22 9 12 1013.2 1013.1 0.0
16/07:00pm 16.7 12.6 8.0 56 4.4 SW 19 24 10 13 1013.1 1013.0 0.0
16/06:30pm 17.1 12.9 7.6 53 4.8 WSW 19 24 10 13 1013.0 1012.9 0.0
16/06:00pm 17.3 12.9 7.6 53 4.9 WSW 20 28 11 15 1012.8 1012.7 0.0
16/05:30pm 18.7 14.4 7.7 48 5.6 WSW 20 24 11 13 1012.6 1012.5 0.0
16/05:00pm 18.9 14.2 7.7 48 5.7 WSW 22 28 12 15 1012.7 1012.6 0.0
16/04:30pm 18.8 15.4 9.1 53 5.1 WSW 17 24 9 13 1013.0 1012.9 0.0
16/04:00pm 19.0 14.3 7.9 48 5.7 WSW 22 28 12 15 1013.1 1013.0 0.0

Other Formats:

Comma delimited format used in spreadsheet applications
http://www.bom.gov.au/fwo/IDW60801/IDW60801.94601.axf

JavaScript Object Notation format (JSON) in row-major order
http://www.bom.gov.au/fwo/IDW60801/IDW60801.94601.json